Private Wetterstation Wechselburg
Wetterdaten: Montag, 05.10.2015
Datum Zeit Temp. +2m Bodentemp. Temp.+5cm Temp. Wind Windchill X Diff Temp. Feuchte +2m Feuchte +5cm Sonnenschein Luftdruck Regen Wind Richtung Richtung Sonnenschein Taupunkt Windchill Windben
05.10.2015 00:00 9,9 C 23,9 C 10,9 C 9,9 C 9,9 C 0,0 C 85 % 89 % 0 % 1015,5 hPa 0,0 l/m 0,0 km/h (0 Bft) W 270 0 min 7,5 C 9,9 C 0,0 km/h (0 Bft)
05.10.2015 00:05 9,9 C 23,9 C 10,8 C 9,9 C 9,8 C 0,0 C 85 % 89 % 0 % 1015,5 hPa 0,0 l/m 0,0 km/h (0 Bft) W 270 0 min 7,5 C 9,8 C 0,0 km/h (0 Bft)
05.10.2015 00:10 9,6 C 24,0 C 10,7 C 9,9 C 9,9 C 0,3 C 85 % 89 % 0 % 1015,5 hPa 0,0 l/m 0,0 km/h (0 Bft) W 270 0 min 7,2 C 9,9 C 0,0 km/h (0 Bft)
05.10.2015 00:15 9,7 C 24,0 C 10,7 C 10,0 C 10,0 C 0,3 C 85 % 89 % 0 % 1015,4 hPa 0,0 l/m 0,0 km/h (0 Bft) O-NO 67 0 min 7,3 C 10,0 C 0,0 km/h (0 Bft)
05.10.2015 00:20 9,7 C 24,0 C 10,7 C 10,1 C 10,1 C 0,4 C 86 % 89 % 0 % 1015,4 hPa 0,0 l/m 0,0 km/h (0 Bft) O-NO 67 0 min 7,5 C 10,1 C 0,0 km/h (0 Bft)
05.10.2015 00:25 9,7 C 24,0 C 10,7 C 10,2 C 10,2 C 0,5 C 86 % 89 % 0 % 1015,4 hPa 0,0 l/m 0,0 km/h (0 Bft) O-NO 67 0 min 7,5 C 10,2 C 0,0 km/h (0 Bft)
05.10.2015 00:30 9,7 C 24,0 C 10,7 C 10,2 C 10,2 C 0,5 C 86 % 90 % 0 % 1015,4 hPa 0,0 l/m 0,0 km/h (0 Bft) O-NO 67 0 min 7,5 C 10,2 C 0,0 km/h (0 Bft)
05.10.2015 00:35 9,9 C 24,0 C 10,8 C 10,5 C 10,5 C 0,6 C 87 % 90 % 0 % 1015,4 hPa 0,0 l/m 0,0 km/h (0 Bft) O-NO 67 0 min 7,8 C 10,5 C 0,0 km/h (0 Bft)
05.10.2015 00:41 9,9 C 24,0 C 10,8 C 10,6 C 10,6 C 0,7 C 87 % 90 % 0 % 1015,4 hPa 0,0 l/m 0,0 km/h (0 Bft) N 0 0 min 7,8 C 10,6 C 0,0 km/h (0 Bft)
05.10.2015 00:50 9,9 C 24,0 C 10,9 C 10,8 C 10,8 C 0,9 C 87 % 90 % 0 % 1015,4 hPa 0,0 l/m 0,0 km/h (0 Bft) S-SW 202 0 min 7,8 C 10,8 C 0,0 km/h (0 Bft)
05.10.2015 00:55 9,9 C 24,0 C 11,1 C 10,8 C 10,8 C 0,9 C 87 % 90 % 0 % 1015,6 hPa 0,0 l/m 0,0 km/h (0 Bft) W 270 0 min 7,8 C 10,8 C 0,0 km/h (0 Bft)
05.10.2015 01:00 9,9 C 24,0 C 11,1 C 10,9 C 10,9 C 1,0 C 87 % 90 % 0 % 1015,6 hPa 0,0 l/m 0,0 km/h (0 Bft) W 270 0 min 7,8 C 10,9 C 0,0 km/h (0 Bft)
05.10.2015 01:05 10,1 C 24,0 C 11,1 C 10,8 C 10,8 C 0,7 C 88 % 90 % 0 % 1015,6 hPa 0,0 l/m 0,0 km/h (0 Bft) S-SW 202 0 min 8,2 C 10,8 C 0,0 km/h (0 Bft)
05.10.2015 01:10 10,0 C 24,0 C 11,0 C 10,8 C 10,8 C 0,8 C 88 % 90 % 0 % 1015,6 hPa 0,0 l/m 0,0 km/h (0 Bft) S-SO 157 0 min 8,1 C 10,8 C 0,0 km/h (0 Bft)
05.10.2015 01:15 10,0 C 24,0 C 11,0 C 10,8 C 10,8 C 0,8 C 88 % 90 % 0 % 1015,2 hPa 0,0 l/m 0,0 km/h (0 Bft) O-NO 67 0 min 8,1 C 10,8 C 0,0 km/h (0 Bft)
05.10.2015 01:20 10,0 C 24,0 C 10,9 C 10,8 C 10,8 C 0,8 C 88 % 90 % 0 % 1015,2 hPa 0,0 l/m 0,0 km/h (0 Bft) S 180 0 min 8,1 C 10,8 C 0,0 km/h (0 Bft)
05.10.2015 01:25 10,0 C 24,0 C 10,9 C 10,6 C 10,6 C 0,6 C 88 % 90 % 0 % 1015,2 hPa 0,0 l/m 0,0 km/h (0 Bft) S 180 0 min 8,1 C 10,6 C 0,0 km/h (0 Bft)
05.10.2015 01:30 9,9 C 23,9 C 10,9 C 10,6 C 10,6 C 0,7 C 87 % 90 % 0 % 1015,2 hPa 0,0 l/m 0,0 km/h (0 Bft) SW 225 0 min 7,8 C 10,6 C 0,0 km/h (0 Bft)
05.10.2015 01:35 9,8 C 24,0 C 10,8 C 10,2 C 10,2 C 0,4 C 87 % 90 % 0 % 1015,5 hPa 0,0 l/m 0,0 km/h (0 Bft) S 180 0 min 7,7 C 10,2 C 0,0 km/h (0 Bft)
05.10.2015 01:40 9,7 C 24,0 C 10,7 C 10,1 C 10,1 C 0,4 C 87 % 89 % 0 % 1015,5 hPa 0,0 l/m 0,0 km/h (0 Bft) S 180 0 min 7,6 C 10,1 C 0,0 km/h (0 Bft)
05.10.2015 01:45 9,7 C 24,0 C 10,6 C 10,0 C 10,0 C 0,3 C 87 % 90 % 0 % 1015,5 hPa 0,0 l/m 0,0 km/h (0 Bft) O-NO 67 0 min 7,6 C 10,0 C 0,0 km/h (0 Bft)
05.10.2015 01:50 9,7 C 24,1 C 10,6 C 10,1 C 10,1 C 0,4 C 88 % 90 % 0 % 1015,5 hPa 0,0 l/m 0,0 km/h (0 Bft) O-NO 67 0 min 7,8 C 10,1 C 0,0 km/h (0 Bft)
05.10.2015 01:55 9,7 C 24,1 C 10,6 C 10,2 C 10,2 C 0,5 C 88 % 90 % 0 % 1015,4 hPa 0,0 l/m 0,0 km/h (0 Bft) O-NO 67 0 min 7,8 C 10,2 C 0,0 km/h (0 Bft)
05.10.2015 02:00 9,8 C 24,1 C 10,5 C 10,3 C 10,3 C 0,5 C 88 % 90 % 0 % 1015,4 hPa 0,0 l/m 0,0 km/h (0 Bft) O-NO 67 0 min 7,9 C 10,3 C 0,0 km/h (0 Bft)
05.10.2015 02:05 9,8 C 24,1 C 10,7 C 10,5 C 10,5 C 0,7 C 88 % 90 % 0 % 1015,4 hPa 0,0 l/m 0,0 km/h (0 Bft) O-NO 67 0 min 7,9 C 10,5 C 0,0 km/h (0 Bft)
05.10.2015 02:10 9,8 C 24,0 C 10,7 C 10,6 C 10,6 C 0,8 C 88 % 90 % 0 % 1015,4 hPa 0,0 l/m 0,0 km/h (0 Bft) O-NO 67 0 min 7,9 C 10,6 C 0,0 km/h (0 Bft)
05.10.2015 02:15 9,9 C 23,9 C 10,7 C 10,6 C 10,6 C 0,7 C 88 % 90 % 0 % 1015,4 hPa 0,0 l/m 0,0 km/h (0 Bft) N-NW 337 0 min 8,0 C 10,6 C 0,0 km/h (0 Bft)
05.10.2015 02:20 10,0 C 23,9 C 10,9 C 10,7 C 10,7 C 0,7 C 88 % 90 % 0 % 1015,4 hPa 0,0 l/m 0,0 km/h (0 Bft) N-NW 337 0 min 8,1 C 10,7 C 0,0 km/h (0 Bft)
05.10.2015 02:25 10,0 C 23,9 C 10,8 C 10,8 C 10,8 C 0,8 C 88 % 90 % 0 % 1015,4 hPa 0,0 l/m 0,0 km/h (0 Bft) O-SO 112 0 min 8,1 C 10,8 C 0,0 km/h (0 Bft)
05.10.2015 02:30 10,1 C 23,9 C 10,8 C 10,8 C 10,8 C 0,7 C 88 % 90 % 0 % 1015,4 hPa 0,0 l/m 0,0 km/h (0 Bft) O 90 0 min 8,2 C 10,8 C 0,0 km/h (0 Bft)
05.10.2015 02:35 10,0 C 23,9 C 10,9 C 10,7 C 10,7 C 0,7 C 88 % 90 % 0 % 1015,2 hPa 0,0 l/m 0,0 km/h (0 Bft) O-SO 112 0 min 8,1 C 10,7 C 0,0 km/h (0 Bft)
05.10.2015 02:40 10,1 C 23,9 C 10,8 C 10,6 C 10,6 C 0,5 C 88 % 90 % 0 % 1015,2 hPa 0,0 l/m 0,0 km/h (0 Bft) O-NO 67 0 min 8,2 C 10,6 C 0,0 km/h (0 Bft)
05.10.2015 02:45 10,0 C 23,9 C 10,8 C 10,4 C 10,4 C 0,4 C 88 % 90 % 0 % 1015,2 hPa 0,0 l/m 0,0 km/h (0 Bft) O 90 0 min 8,1 C 10,4 C 0,0 km/h (0 Bft)
05.10.2015 02:50 10,0 C 23,9 C 10,7 C 10,3 C 10,3 C 0,3 C 88 % 90 % 0 % 1015,2 hPa 0,0 l/m 0,0 km/h (0 Bft) O 90 0 min 8,1 C 10,3 C 0,0 km/h (0 Bft)
05.10.2015 02:55 9,9 C 23,9 C 10,6 C 10,0 C 10,0 C 0,1 C 88 % 90 % 0 % 1015,2 hPa 0,0 l/m 0,0 km/h (0 Bft) O 90 0 min 8,0 C 10,0 C 0,0 km/h (0 Bft)
05.10.2015 03:00 9,7 C 24,0 C 10,4 C 9,9 C 9,9 C 0,2 C 88 % 90 % 0 % 1015,2 hPa 0,0 l/m 0,0 km/h (0 Bft) O 90 0 min 7,8 C 9,9 C 0,0 km/h (0 Bft)
05.10.2015 03:05 9,7 C 24,0 C 10,3 C 9,8 C 9,8 C 0,1 C 88 % 90 % 0 % 1015,2 hPa 0,0 l/m 0,0 km/h (0 Bft) O-NO 67 0 min 7,8 C 9,8 C 0,0 km/h (0 Bft)
05.10.2015 03:10 9,7 C 24,0 C 10,3 C 9,8 C 9,8 C 0,1 C 88 % 90 % 0 % 1015,2 hPa 0,0 l/m 0,0 km/h (0 Bft) O-NO 67 0 min 7,8 C 9,8 C 0,0 km/h (0 Bft)
05.10.2015 03:15 9,6 C 24,0 C 10,0 C 9,7 C 9,7 C 0,1 C 88 % 90 % 0 % 1015,2 hPa 0,0 l/m 0,0 km/h (0 Bft) NO 45 0 min 7,7 C 9,7 C 0,0 km/h (0 Bft)
05.10.2015 03:20 9,5 C 24,0 C 10,0 C 9,6 C 9,6 C 0,1 C 88 % 90 % 0 % 1015,2 hPa 0,0 l/m 0,0 km/h (0 Bft) NO 45 0 min 7,6 C 9,6 C 0,0 km/h (0 Bft)
05.10.2015 03:25 9,2 C 24,0 C 10,0 C 9,3 C 9,3 C 0,1 C 87 % 90 % 0 % 1015,2 hPa 0,0 l/m 0,0 km/h (0 Bft) NO 45 0 min 7,2 C 9,3 C 0,0 km/h (0 Bft)
05.10.2015 03:30 9,1 C 24,0 C 10,0 C 9,1 C 9,1 C 0,0 C 87 % 90 % 0 % 1015,2 hPa 0,0 l/m 0,0 km/h (0 Bft) W-SW 247 0 min 7,1 C 9,1 C 0,0 km/h (0 Bft)
05.10.2015 03:35 9,1 C 24,0 C 10,0 C 9,1 C 9,1 C 0,0 C 87 % 90 % 0 % 1015,6 hPa 0,0 l/m 0,0 km/h (0 Bft) O-NO 67 0 min 7,1 C 9,1 C 0,0 km/h (0 Bft)
05.10.2015 03:41 9,0 C 24,0 C 9,9 C 9,3 C 9,3 C 0,3 C 88 % 90 % 0 % 1015,6 hPa 0,0 l/m 0,0 km/h (0 Bft) N 0 0 min 7,1 C 9,3 C 0,0 km/h (0 Bft)
05.10.2015 03:50 9,0 C 24,0 C 9,9 C 9,3 C 9,3 C 0,3 C 88 % 90 % 0 % 1015,6 hPa 0,0 l/m 0,0 km/h (0 Bft) O-NO 67 0 min 7,1 C 9,3 C 0,0 km/h (0 Bft)
05.10.2015 03:55 9,1 C 24,0 C 9,8 C 9,3 C 9,3 C 0,2 C 88 % 90 % 0 % 1015,6 hPa 0,0 l/m 0,0 km/h (0 Bft) O-NO 67 0 min 7,2 C 9,3 C 0,0 km/h (0 Bft)
05.10.2015 04:00 9,1 C 24,0 C 9,7 C 9,3 C 9,3 C 0,2 C 88 % 90 % 0 % 1015,6 hPa 0,0 l/m 0,0 km/h (0 Bft) O-NO 67 0 min 7,2 C 9,3 C 0,0 km/h (0 Bft)
05.10.2015 04:05 9,1 C 24,0 C 9,7 C 9,2 C 9,2 C 0,1 C 88 % 90 % 0 % 1015,6 hPa 0,0 l/m 0,0 km/h (0 Bft) O-NO 67 0 min 7,2 C 9,2 C 0,0 km/h (0 Bft)
05.10.2015 04:10 9,1 C 24,0 C 9,7 C 9,2 C 9,2 C 0,1 C 89 % 90 % 0 % 1015,6 hPa 0,0 l/m 0,0 km/h (0 Bft) O-NO 67 0 min 7,4 C 9,2 C 0,0 km/h (0 Bft)
05.10.2015 04:15 9,1 C 24,0 C 9,7 C 9,2 C 9,2 C 0,1 C 89 % 90 % 0 % 1015,6 hPa 0,0 l/m 0,0 km/h (0 Bft) O-NO 67 0 min 7,4 C 9,2 C 0,0 km/h (0 Bft)
05.10.2015 04:20 9,1 C 23,9 C 9,6 C 9,1 C 9,1 C 0,0 C 89 % 90 % 0 % 1015,6 hPa 0,0 l/m 0,0 km/h (0 Bft) O-NO 67 0 min 7,4 C 9,1 C 0,0 km/h (0 Bft)
05.10.2015 04:25 8,8 C 23,9 C 9,5 C 9,0 C 9,0 C 0,2 C 88 % 90 % 0 % 1015,6 hPa 0,0 l/m 0,0 km/h (0 Bft) O-NO 67 0 min 6,9 C 9,0 C 0,0 km/h (0 Bft)
05.10.2015 04:30 8,8 C 23,9 C 9,5 C 9,0 C 9,0 C 0,2 C 88 % 90 % 0 % 1015,6 hPa 0,0 l/m 0,0 km/h (0 Bft) O-NO 67 0 min 6,9 C 9,0 C 0,0 km/h (0 Bft)
05.10.2015 04:35 8,9 C 23,9 C 9,5 C 8,9 C 8,9 C 0,0 C 88 % 90 % 0 % 1015,2 hPa 0,0 l/m 0,0 km/h (0 Bft) O-NO 67 0 min 7,0 C 8,9 C 0,0 km/h (0 Bft)
05.10.2015 04:40 8,8 C 23,9 C 9,2 C 8,9 C 8,9 C 0,1 C 88 % 90 % 0 % 1015,2 hPa 0,0 l/m 0,0 km/h (0 Bft) O-NO 67 0 min 6,9 C 8,9 C 0,0 km/h (0 Bft)
05.10.2015 04:45 8,7 C 23,9 C 9,2 C 8,9 C 8,9 C 0,2 C 89 % 90 % 0 % 1015,2 hPa 0,0 l/m 0,0 km/h (0 Bft) O-NO 67 0 min 7,0 C 8,9 C 0,0 km/h (0 Bft)
05.10.2015 04:50 8,7 C 23,9 C 9,2 C 8,8 C 8,8 C 0,1 C 89 % 90 % 0 % 1015,2 hPa 0,0 l/m 0,0 km/h (0 Bft) O-NO 67 0 min 7,0 C 8,8 C 0,0 km/h (0 Bft)
05.10.2015 04:55 8,6 C 23,9 C 9,3 C 8,8 C 8,8 C 0,2 C 89 % 90 % 0 % 1015,5 hPa 0,0 l/m 0,0 km/h (0 Bft) O-NO 67 0 min 6,9 C 8,8 C 0,0 km/h (0 Bft)
05.10.2015 05:00 8,7 C 23,9 C 9,3 C 8,7 C 8,7 C 0,0 C 89 % 90 % 0 % 1015,5 hPa 0,0 l/m 0,0 km/h (0 Bft) O-NO 67 0 min 7,0 C 8,7 C 0,0 km/h (0 Bft)
05.10.2015 05:05 8,6 C 23,9 C 9,3 C 8,7 C 8,7 C 0,1 C 89 % 90 % 0 % 1015,5 hPa 0,0 l/m 0,0 km/h (0 Bft) O-NO 67 0 min 6,9 C 8,7 C 0,0 km/h (0 Bft)
05.10.2015 05:10 8,7 C 23,9 C 9,3 C 8,7 C 8,7 C 0,0 C 89 % 90 % 0 % 1015,5 hPa 0,0 l/m 0,0 km/h (0 Bft) O-NO 67 0 min 7,0 C 8,7 C 0,0 km/h (0 Bft)
05.10.2015 05:15 8,7 C 23,9 C 9,2 C 8,7 C 8,6 C 0,0 C 89 % 90 % 0 % 1015,4 hPa 0,0 l/m 0,0 km/h (0 Bft) O-NO 67 0 min 7,0 C 8,6 C 0,0 km/h (0 Bft)
05.10.2015 05:20 8,5 C 23,9 C 9,0 C 8,5 C 8,5 C 0,0 C 89 % 90 % 0 % 1015,4 hPa 0,0 l/m 0,0 km/h (0 Bft) O-NO 67 0 min 6,8 C 8,5 C 0,0 km/h (0 Bft)
05.10.2015 05:25 8,4 C 23,9 C 9,0 C 8,4 C 8,4 C 0,0 C 89 % 90 % 0 % 1015,4 hPa 0,0 l/m 0,0 km/h (0 Bft) O-NO 67 0 min 6,7 C 8,4 C 0,0 km/h (0 Bft)
05.10.2015 05:30 8,2 C 23,9 C 9,0 C 8,4 C 8,4 C 0,2 C 89 % 90 % 0 % 1015,4 hPa 0,0 l/m 0,0 km/h (0 Bft) O-NO 67 0 min 6,5 C 8,4 C 0,0 km/h (0 Bft)
05.10.2015 05:35 8,1 C 23,8 C 8,9 C 8,4 C 8,4 C 0,3 C 89 % 90 % 0 % 1015,6 hPa 0,0 l/m 0,0 km/h (0 Bft) O-NO 67 0 min 6,4 C 8,4 C 0,0 km/h (0 Bft)
05.10.2015 05:40 8,1 C 23,8 C 8,8 C 8,3 C 8,3 C 0,2 C 89 % 90 % 0 % 1015,6 hPa 0,0 l/m 0,3 km/h (0 Bft) O-NO 67 0 min 6,4 C 8,3 C 2,6 km/h (1 Bft)
05.10.2015 05:45 8,1 C 23,8 C 8,8 C 8,4 C 8,4 C 0,3 C 89 % 90 % 0 % 1015,6 hPa 0,0 l/m 0,6 km/h (0 Bft) O-NO 67 0 min 6,4 C 8,4 C 0,0 km/h (0 Bft)
05.10.2015 05:50 8,0 C 23,8 C 8,7 C 8,2 C 8,2 C 0,2 C 89 % 90 % 0 % 1015,6 hPa 0,0 l/m 0,5 km/h (0 Bft) O-NO 67 0 min 6,3 C 8,2 C 0,0 km/h (0 Bft)
05.10.2015 05:55 7,9 C 23,8 C 8,8 C 8,1 C 8,1 C 0,2 C 89 % 90 % 0 % 1015,3 hPa 0,0 l/m 0,0 km/h (0 Bft) O-NO 67 0 min 6,2 C 8,1 C 0,0 km/h (0 Bft)
05.10.2015 06:00 7,9 C 23,8 C 8,7 C 8,0 C 8,0 C 0,1 C 89 % 90 % 0 % 1015,3 hPa 0,0 l/m 0,0 km/h (0 Bft) O-NO 67 0 min 6,2 C 8,0 C 0,0 km/h (0 Bft)
05.10.2015 06:05 7,9 C 23,8 C 8,5 C 7,9 C 7,9 C 0,0 C 89 % 90 % 0 % 1015,3 hPa 0,0 l/m 0,0 km/h (0 Bft) S 180 0 min 6,2 C 7,9 C 0,0 km/h (0 Bft)
05.10.2015 06:10 7,7 C 23,8 C 8,7 C 7,8 C 7,8 C 0,1 C 89 % 90 % 0 % 1015,3 hPa 0,0 l/m 0,2 km/h (0 Bft) S 180 0 min 6,0 C 7,8 C 0,0 km/h (0 Bft)
05.10.2015 06:15 7,5 C 23,8 C 8,6 C 7,6 C 7,6 C 0,1 C 88 % 90 % 0 % 1015,6 hPa 0,0 l/m 0,2 km/h (0 Bft) W 270 0 min 5,6 C 7,6 C 0,0 km/h (0 Bft)
05.10.2015 06:20 7,5 C 23,8 C 8,4 C 7,5 C 7,4 C 0,0 C 88 % 90 % 0 % 1015,6 hPa 0,0 l/m 0,0 km/h (0 Bft) S 180 0 min 5,6 C 7,4 C 0,0 km/h (0 Bft)
05.10.2015 06:25 7,3 C 23,8 C 8,3 C 7,2 C 7,1 C 0,0 C 88 % 90 % 0 % 1015,6 hPa 0,0 l/m 0,0 km/h (0 Bft) S 180 0 min 5,4 C 7,1 C 0,0 km/h (0 Bft)
05.10.2015 06:30 7,2 C 23,8 C 8,1 C 7,2 C 7,1 C 0,0 C 88 % 90 % 0 % 1015,6 hPa 0,0 l/m 0,0 km/h (0 Bft) O-NO 67 0 min 5,3 C 7,1 C 0,0 km/h (0 Bft)
05.10.2015 06:35 7,1 C 23,8 C 8,1 C 7,1 C 7,1 C 0,0 C 89 % 90 % 0 % 1015,6 hPa 0,0 l/m 0,0 km/h (0 Bft) O-NO 67 0 min 5,4 C 7,1 C 0,0 km/h (0 Bft)
05.10.2015 06:41 6,9 C 23,7 C 7,9 C 6,9 C 6,9 C 0,0 C 89 % 90 % 0 % 1015,6 hPa 0,0 l/m 0,0 km/h (0 Bft) N 0 0 min 5,2 C 6,9 C 0,0 km/h (0 Bft)
05.10.2015 06:50 7,1 C 23,8 C 7,9 C 7,1 C 7,0 C 0,0 C 89 % 90 % 0 % 1015,6 hPa 0,0 l/m 0,0 km/h (0 Bft) O-NO 67 0 min 5,4 C 7,0 C 0,0 km/h (0 Bft)
05.10.2015 06:55 7,1 C 23,8 C 7,8 C 7,1 C 7,1 C 0,0 C 89 % 90 % 0 % 1015,4 hPa 0,0 l/m 0,0 km/h (0 Bft) O-NO 67 0 min 5,4 C 7,1 C 0,0 km/h (0 Bft)
05.10.2015 07:00 7,1 C 23,8 C 7,8 C 7,1 C 7,1 C 0,0 C 89 % 90 % 0 % 1015,4 hPa 0,0 l/m 0,0 km/h (0 Bft) O-NO 67 0 min 5,4 C 7,1 C 0,0 km/h (0 Bft)
05.10.2015 07:05 6,8 C 23,8 C 7,8 C 6,8 C 6,8 C 0,0 C 89 % 90 % 0 % 1015,4 hPa 0,0 l/m 0,0 km/h (0 Bft) O-NO 67 0 min 5,1 C 6,8 C 0,0 km/h (0 Bft)
05.10.2015 07:10 6,7 C 23,8 C 7,7 C 6,7 C 6,6 C 0,0 C 89 % 90 % 0 % 1015,4 hPa 0,0 l/m 0,0 km/h (0 Bft) SW 225 0 min 5,0 C 6,6 C 0,0 km/h (0 Bft)
05.10.2015 07:15 6,5 C 23,8 C 7,5 C 6,5 C 6,4 C 0,0 C 89 % 90 % 0 % 1015,4 hPa 0,0 l/m 0,0 km/h (0 Bft) W-SW 247 0 min 4,8 C 6,4 C 0,0 km/h (0 Bft)
05.10.2015 07:20 6,4 C 23,8 C 7,5 C 6,4 C 6,3 C 0,0 C 89 % 90 % 0 % 1015,4 hPa 0,0 l/m 0,0 km/h (0 Bft) W-SW 247 0 min 4,7 C 6,3 C 0,0 km/h (0 Bft)
05.10.2015 07:25 6,3 C 23,8 C 7,4 C 6,3 C 6,3 C 0,0 C 89 % 90 % 0 % 1015,4 hPa 0,0 l/m 0,0 km/h (0 Bft) O-NO 67 0 min 4,6 C 6,3 C 0,0 km/h (0 Bft)
05.10.2015 07:30 6,4 C 23,8 C 7,5 C 6,4 C 6,4 C 0,0 C 89 % 90 % 0 % 1015,4 hPa 0,0 l/m 0,0 km/h (0 Bft) O-NO 67 0 min 4,7 C 6,4 C 0,0 km/h (0 Bft)
05.10.2015 07:35 6,4 C 23,8 C 7,5 C 6,6 C 6,6 C 0,2 C 89 % 90 % 5 % 1015,4 hPa 0,0 l/m 0,0 km/h (0 Bft) O-NO 67 0 min 4,7 C 6,6 C 0,0 km/h (0 Bft)
05.10.2015 07:40 6,5 C 23,8 C 7,5 C 6,8 C 6,8 C 0,3 C 90 % 90 % 8 % 1015,4 hPa 0,0 l/m 0,0 km/h (0 Bft) O-NO 67 0 min 5,0 C 6,8 C 0,0 km/h (0 Bft)
05.10.2015 07:45 6,7 C 23,7 C 7,5 C 7,1 C 7,1 C 0,4 C 90 % 90 % 11 % 1015,4 hPa 0,0 l/m 0,0 km/h (0 Bft) O-NO 67 0 min 5,2 C 7,1 C 0,0 km/h (0 Bft)
05.10.2015 07:50 6,6 C 23,7 C 7,6 C 7,3 C 7,3 C 0,7 C 90 % 90 % 18 % 1015,4 hPa 0,0 l/m 0,0 km/h (0 Bft) O-NO 67 0 min 5,1 C 7,3 C 0,0 km/h (0 Bft)
05.10.2015 07:55 6,5 C 23,7 C 7,5 C 7,6 C 7,6 C 1,1 C 90 % 90 % 29 % 1015,3 hPa 0,0 l/m 0,0 km/h (0 Bft) O-NO 67 5 min 5,0 C 7,6 C 0,0 km/h (0 Bft)
05.10.2015 08:00 6,5 C 23,7 C 7,5 C 7,9 C 7,9 C 1,4 C 90 % 90 % 37 % 1015,3 hPa 0,0 l/m 0,0 km/h (0 Bft) O-NO 67 5 min 5,0 C 7,9 C 0,0 km/h (0 Bft)
05.10.2015 08:05 6,4 C 23,7 C 7,4 C 7,9 C 7,9 C 1,5 C 90 % 90 % 39 % 1015,3 hPa 0,0 l/m 0,0 km/h (0 Bft) W-SW 247 5 min 4,9 C 7,9 C 0,0 km/h (0 Bft)
05.10.2015 08:10 6,4 C 23,7 C 7,4 C 8,2 C 8,2 C 1,8 C 90 % 90 % 47 % 1015,3 hPa 0,0 l/m 0,0 km/h (0 Bft) W-SW 247 5 min 4,9 C 8,2 C 0,0 km/h (0 Bft)
05.10.2015 08:15 6,5 C 23,7 C 7,5 C 8,0 C 8,0 C 1,5 C 90 % 90 % 39 % 1015,3 hPa 0,0 l/m 0,0 km/h (0 Bft) O-NO 67 5 min 5,0 C 8,0 C 0,0 km/h (0 Bft)
05.10.2015 08:20 6,5 C 23,7 C 7,6 C 7,8 C 7,8 C 1,3 C 90 % 90 % 34 % 1015,3 hPa 0,0 l/m 0,0 km/h (0 Bft) SW 225 0 min 5,0 C 7,8 C 0,0 km/h (0 Bft)
05.10.2015 08:25 6,7 C 23,7 C 7,6 C 7,7 C 7,7 C 1,0 C 90 % 90 % 26 % 1015,3 hPa 0,0 l/m 0,0 km/h (0 Bft) SW 225 0 min 5,2 C 7,7 C 0,0 km/h (0 Bft)
05.10.2015 08:30 6,7 C 23,7 C 7,9 C 7,8 C 7,8 C 1,1 C 90 % 90 % 29 % 1015,3 hPa 0,0 l/m 0,0 km/h (0 Bft) SW 225 0 min 5,2 C 7,8 C 0,0 km/h (0 Bft)
05.10.2015 08:35 6,8 C 23,7 C 8,0 C 8,1 C 8,1 C 1,3 C 90 % 90 % 34 % 1015,8 hPa 0,0 l/m 0,0 km/h (0 Bft) SW 225 0 min 5,3 C 8,1 C 0,0 km/h (0 Bft)
05.10.2015 08:40 6,9 C 23,7 C 8,0 C 8,3 C 8,3 C 1,4 C 90 % 89 % 37 % 1015,8 hPa 0,0 l/m 0,0 km/h (0 Bft) SW 225 0 min 5,4 C 8,3 C 0,0 km/h (0 Bft)
05.10.2015 08:45 7,1 C 23,7 C 8,3 C 8,4 C 8,4 C 1,3 C 90 % 89 % 34 % 1015,8 hPa 0,0 l/m 0,0 km/h (0 Bft) O-NO 67 0 min 5,6 C 8,4 C 0,0 km/h (0 Bft)
05.10.2015 08:50 7,2 C 23,7 C 8,4 C 8,6 C 8,6 C 1,4 C 91 % 89 % 37 % 1015,8 hPa 0,0 l/m 0,0 km/h (0 Bft) O-NO 67 0 min 5,8 C 8,6 C 0,0 km/h (0 Bft)
05.10.2015 08:55 7,3 C 23,7 C 8,5 C 8,7 C 8,7 C 1,4 C 91 % 89 % 37 % 1015,7 hPa 0,0 l/m 0,0 km/h (0 Bft) SW 225 0 min 5,9 C 8,7 C 0,0 km/h (0 Bft)
05.10.2015 09:00 7,4 C 23,7 C 8,5 C 8,8 C 8,8 C 1,4 C 91 % 89 % 37 % 1015,7 hPa 0,0 l/m 0,0 km/h (0 Bft) S-SW 202 0 min 6,0 C 8,8 C 0,0 km/h (0 Bft)
05.10.2015 09:05 7,4 C 23,7 C 8,8 C 9,1 C 9,1 C 1,7 C 91 % 89 % 45 % 1015,7 hPa 0,0 l/m 0,0 km/h (0 Bft) S-SW 202 0 min 6,0 C 9,1 C 0,0 km/h (0 Bft)
05.10.2015 09:10 7,6 C 23,6 C 8,9 C 9,3 C 9,3 C 1,7 C 91 % 89 % 45 % 1015,7 hPa 0,0 l/m 0,0 km/h (0 Bft) S 180 0 min 6,2 C 9,3 C 0,0 km/h (0 Bft)
05.10.2015 09:15 7,7 C 23,6 C 9,0 C 9,6 C 9,6 C 1,9 C 91 % 89 % 50 % 1015,7 hPa 0,0 l/m 0,0 km/h (0 Bft) S 180 0 min 6,3 C 9,6 C 0,0 km/h (0 Bft)
05.10.2015 09:20 7,8 C 23,5 C 9,2 C 9,8 C 9,8 C 2,0 C 91 % 89 % 53 % 1015,7 hPa 0,0 l/m 0,0 km/h (0 Bft) W-SW 247 0 min 6,4 C 9,8 C 0,0 km/h (0 Bft)
05.10.2015 09:25 8,0 C 23,5 C 9,5 C 10,0 C 10,0 C 2,0 C 91 % 88 % 53 % 1015,7 hPa 0,0 l/m 0,0 km/h (0 Bft) W-SW 247 0 min 6,6 C 10,0 C 0,0 km/h (0 Bft)
05.10.2015 09:30 8,1 C 23,5 C 9,6 C 10,1 C 10,1 C 2,0 C 91 % 88 % 53 % 1015,7 hPa 0,0 l/m 0,0 km/h (0 Bft) S 180 0 min 6,7 C 10,1 C 0,0 km/h (0 Bft)
05.10.2015 09:35 8,4 C 23,4 C 9,9 C 10,3 C 10,3 C 1,9 C 91 % 88 % 50 % 1015,9 hPa 0,0 l/m 0,0 km/h (0 Bft) SW 225 0 min 7,0 C 10,3 C 0,0 km/h (0 Bft)
05.10.2015 09:41 8,7 C 23,4 C 10,3 C 10,7 C 10,7 C 2,0 C 92 % 88 % 53 % 1015,9 hPa 0,0 l/m 0,0 km/h (0 Bft) N 0 0 min 7,5 C 10,7 C 0,0 km/h (0 Bft)
05.10.2015 09:50 8,8 C 23,4 C 10,3 C 10,8 C 10,8 C 2,0 C 92 % 88 % 53 % 1015,9 hPa 0,0 l/m 0,0 km/h (0 Bft) SW 225 0 min 7,6 C 10,8 C 1,8 km/h (1 Bft)
05.10.2015 09:55 9,1 C 23,4 C 10,4 C 11,0 C 11,0 C 1,9 C 92 % 88 % 50 % 1016,0 hPa 0,0 l/m 0,5 km/h (0 Bft) SW 225 0 min 7,9 C 11,0 C 3,9 km/h (1 Bft)
05.10.2015 10:00 9,2 C 23,4 C 10,6 C 11,1 C 11,1 C 1,9 C 92 % 89 % 50 % 1016,0 hPa 0,0 l/m 0,5 km/h (0 Bft) W-SW 247 0 min 8,0 C 11,1 C 0,0 km/h (0 Bft)
05.10.2015 10:05 9,5 C 23,4 C 10,8 C 11,3 C 11,3 C 1,8 C 92 % 89 % 47 % 1016,0 hPa 0,0 l/m 0,2 km/h (0 Bft) SW 225 0 min 8,3 C 11,3 C 0,0 km/h (0 Bft)
05.10.2015 10:10 9,6 C 23,4 C 10,9 C 11,5 C 11,5 C 1,9 C 92 % 89 % 50 % 1016,0 hPa 0,0 l/m 0,2 km/h (0 Bft) W 270 0 min 8,4 C 11,5 C 0,0 km/h (0 Bft)
05.10.2015 10:15 9,8 C 23,3 C 11,3 C 11,8 C 11,8 C 2,0 C 92 % 89 % 53 % 1016,1 hPa 0,0 l/m 0,3 km/h (0 Bft) SW 225 0 min 8,6 C 11,8 C 0,0 km/h (0 Bft)
05.10.2015 10:20 10,0 C 23,3 C 11,5 C 12,0 C 12,0 C 2,0 C 92 % 89 % 53 % 1016,1 hPa 0,0 l/m 0,6 km/h (0 Bft) W-SW 247 0 min 8,8 C 12,0 C 1,6 km/h (1 Bft)
05.10.2015 10:25 10,2 C 23,3 C 11,6 C 12,3 C 12,3 C 2,1 C 92 % 89 % 55 % 1016,1 hPa 0,0 l/m 1,1 km/h (1 Bft) W-SW 247 0 min 9,0 C 12,3 C 5,3 km/h (1 Bft)
05.10.2015 10:30 10,3 C 23,3 C 11,7 C 12,6 C 12,6 C 2,3 C 92 % 89 % 61 % 1016,1 hPa 0,0 l/m 1,3 km/h (1 Bft) SW 225 0 min 9,1 C 12,6 C 1,6 km/h (1 Bft)
05.10.2015 10:35 10,5 C 23,2 C 11,9 C 12,8 C 12,8 C 2,3 C 92 % 89 % 61 % 1016,1 hPa 0,0 l/m 1,0 km/h (0 Bft) SW 225 0 min 9,3 C 12,8 C 5,6 km/h (1 Bft)
05.10.2015 10:40 10,7 C 23,3 C 12,0 C 13,1 C 13,1 C 2,4 C 92 % 89 % 63 % 1016,1 hPa 0,0 l/m 0,6 km/h (0 Bft) W-SW 247 0 min 9,5 C 13,1 C 0,0 km/h (0 Bft)
05.10.2015 10:45 10,9 C 23,2 C 12,2 C 13,4 C 13,4 C 2,5 C 92 % 89 % 66 % 1016,1 hPa 0,0 l/m 0,5 km/h (0 Bft) S 180 0 min 9,7 C 13,4 C 3,1 km/h (1 Bft)
05.10.2015 10:50 11,1 C 23,2 C 12,4 C 13,6 C 13,6 C 2,5 C 92 % 89 % 66 % 1016,1 hPa 0,0 l/m 0,6 km/h (0 Bft) S 180 0 min 9,8 C 13,6 C 2,3 km/h (1 Bft)
05.10.2015 10:55 11,3 C 23,1 C 12,5 C 14,0 C 14,0 C 2,7 C 92 % 89 % 71 % 1016,1 hPa 0,0 l/m 1,0 km/h (0 Bft) N 360 0 min 10,0 C 14,0 C 1,8 km/h (1 Bft)
05.10.2015 11:00 11,5 C 23,1 C 12,7 C 14,4 C 14,4 C 2,9 C 92 % 89 % 76 % 1016,1 hPa 0,0 l/m 0,8 km/h (0 Bft) W-NW 292 0 min 10,2 C 14,4 C 0,0 km/h (0 Bft)
05.10.2015 11:05 11,7 C 23,1 C 12,9 C 14,6 C 14,6 C 2,9 C 92 % 89 % 76 % 1016,1 hPa 0,0 l/m 0,6 km/h (0 Bft) W-SW 247 0 min 10,4 C 14,6 C 0,0 km/h (0 Bft)
05.10.2015 11:10 12,0 C 23,1 C 13,0 C 14,7 C 14,7 C 2,7 C 92 % 89 % 71 % 1016,1 hPa 0,0 l/m 0,5 km/h (0 Bft) W 270 0 min 10,7 C 14,7 C 3,2 km/h (1 Bft)
05.10.2015 11:15 12,3 C 23,1 C 13,1 C 15,0 C 15,0 C 2,7 C 92 % 89 % 71 % 1016,2 hPa 0,0 l/m 1,4 km/h (1 Bft) S 180 0 min 11,0 C 15,0 C 7,7 km/h (2 Bft)
05.10.2015 11:20 12,5 C 23,1 C 13,2 C 15,1 C 15,1 C 2,6 C 92 % 89 % 68 % 1016,2 hPa 0,0 l/m 1,4 km/h (1 Bft) S 180 0 min 11,2 C 15,1 C 0,0 km/h (0 Bft)
05.10.2015 11:25 12,8 C 23,1 C 13,4 C 15,3 C 15,3 C 2,5 C 92 % 89 % 66 % 1016,2 hPa 0,0 l/m 1,3 km/h (1 Bft) S-SW 202 0 min 11,5 C 15,3 C 2,4 km/h (1 Bft)
05.10.2015 11:30 13,0 C 23,1 C 13,6 C 15,5 C 15,5 C 2,5 C 91 % 89 % 66 % 1016,2 hPa 0,0 l/m 1,0 km/h (0 Bft) O-SO 112 0 min 11,6 C 15,5 C 3,7 km/h (1 Bft)
05.10.2015 11:35 13,3 C 23,1 C 13,7 C 15,6 C 15,6 C 2,3 C 91 % 89 % 61 % 1016,1 hPa 0,0 l/m 0,8 km/h (0 Bft) SW 225 0 min 11,9 C 15,6 C 0,0 km/h (0 Bft)
05.10.2015 11:40 13,4 C 23,1 C 13,7 C 15,8 C 15,8 C 2,4 C 91 % 89 % 63 % 1016,1 hPa 0,0 l/m 0,5 km/h (0 Bft) W-SW 247 0 min 12,0 C 15,8 C 1,8 km/h (1 Bft)
05.10.2015 11:45 13,6 C 23,1 C 13,8 C 16,0 C 16,0 C 2,4 C 89 % 89 % 63 % 1016,1 hPa 0,0 l/m 0,6 km/h (0 Bft) SW 225 0 min 11,8 C 16,0 C 1,9 km/h (1 Bft)
05.10.2015 11:50 13,8 C 23,1 C 13,9 C 16,1 C 16,1 C 2,3 C 89 % 88 % 61 % 1016,1 hPa 0,0 l/m 0,8 km/h (0 Bft) W 270 0 min 12,0 C 16,1 C 1,8 km/h (1 Bft)
05.10.2015 11:55 13,9 C 23,1 C 14,0 C 16,3 C 16,3 C 2,4 C 88 % 88 % 63 % 1016,1 hPa 0,0 l/m 1,0 km/h (0 Bft) S-SW 202 0 min 11,9 C 16,3 C 5,0 km/h (1 Bft)
05.10.2015 12:00 14,0 C 23,1 C 14,1 C 16,5 C 16,5 C 2,5 C 87 % 88 % 66 % 1016,1 hPa 0,0 l/m 1,1 km/h (1 Bft) W-SW 247 0 min 11,9 C 16,5 C 2,4 km/h (1 Bft)
05.10.2015 12:05 14,0 C 23,1 C 14,3 C 16,7 C 16,7 C 2,7 C 86 % 88 % 71 % 1016,1 hPa 0,0 l/m 1,0 km/h (0 Bft) W-SW 247 0 min 11,7 C 16,7 C 2,1 km/h (1 Bft)
05.10.2015 12:10 14,2 C 23,1 C 14,3 C 16,9 C 16,9 C 2,7 C 85 % 87 % 71 % 1016,1 hPa 0,0 l/m 1,3 km/h (1 Bft) W-SW 247 0 min 11,7 C 16,9 C 2,6 km/h (1 Bft)
05.10.2015 12:15 14,3 C 23,1 C 14,5 C 17,0 C 17,0 C 2,7 C 83 % 87 % 71 % 1016,1 hPa 0,0 l/m 1,3 km/h (1 Bft) S 180 0 min 11,5 C 17,0 C 2,6 km/h (1 Bft)
05.10.2015 12:20 14,4 C 23,1 C 14,5 C 17,3 C 17,3 C 2,9 C 83 % 87 % 76 % 1016,1 hPa 0,0 l/m 1,1 km/h (1 Bft) S 180 0 min 11,5 C 17,3 C 1,8 km/h (1 Bft)
05.10.2015 12:25 14,5 C 23,0 C 14,7 C 17,5 C 17,5 C 3,0 C 81 % 87 % 79 % 1016,1 hPa 0,0 l/m 1,4 km/h (1 Bft) W-SW 247 0 min 11,3 C 17,5 C 2,1 km/h (1 Bft)
05.10.2015 12:30 14,7 C 23,0 C 14,8 C 17,8 C 17,8 C 3,1 C 81 % 86 % 82 % 1016,1 hPa 0,0 l/m 1,3 km/h (1 Bft) W-SW 247 0 min 11,5 C 17,8 C 1,6 km/h (1 Bft)
05.10.2015 12:35 14,9 C 23,0 C 14,9 C 19,0 C 19,0 C 4,1 C 80 % 86 % 100 % 1016,1 hPa 0,0 l/m 1,0 km/h (0 Bft) NW 315 5 min 11,5 C 19,0 C 3,1 km/h (1 Bft)
05.10.2015 12:41 15,7 C 23,0 C 15,1 C 22,8 C 22,8 C 7,1 C 79 % 85 % 100 % 1016,1 hPa 0,0 l/m 0,5 km/h (0 Bft) N 0 6 min 12,1 C 22,8 C 0,0 km/h (0 Bft)
05.10.2015 12:50 16,0 C 23,0 C 15,1 C 23,5 C 23,5 C 7,5 C 77 % 85 % 100 % 1016,1 hPa 0,0 l/m 0,8 km/h (0 Bft) N-NW 337 9 min 12,0 C 23,5 C 2,3 km/h (1 Bft)
05.10.2015 12:55 16,4 C 23,0 C 15,4 C 24,5 C 24,5 C 8,1 C 76 % 84 % 100 % 1015,9 hPa 0,0 l/m 0,6 km/h (0 Bft) N-NW 337 5 min 12,2 C 24,5 C 2,4 km/h (1 Bft)
05.10.2015 13:00 16,8 C 23,0 C 15,5 C 25,1 C 25,1 C 8,3 C 75 % 84 % 100 % 1015,9 hPa 0,0 l/m 0,6 km/h (0 Bft) W 270 5 min 12,3 C 25,1 C 3,4 km/h (1 Bft)
05.10.2015 13:05 17,1 C 23,1 C 15,6 C 25,3 C 25,3 C 8,2 C 74 % 84 % 100 % 1015,9 hPa 0,0 l/m 1,3 km/h (1 Bft) SW 225 5 min 12,4 C 25,3 C 0,0 km/h (0 Bft)
05.10.2015 13:10 17,3 C 23,1 C 15,8 C 25,5 C 25,5 C 8,2 C 73 % 84 % 100 % 1015,9 hPa 0,0 l/m 1,0 km/h (0 Bft) SW 225 5 min 12,4 C 25,5 C 0,0 km/h (0 Bft)
05.10.2015 13:15 17,3 C 23,1 C 15,9 C 25,8 C 25,8 C 8,5 C 73 % 83 % 100 % 1015,5 hPa 0,0 l/m 0,6 km/h (0 Bft) O-NO 67 5 min 12,4 C 25,8 C 1,9 km/h (1 Bft)
05.10.2015 13:20 17,4 C 23,1 C 16,0 C 25,9 C 25,9 C 8,5 C 72 % 83 % 100 % 1015,5 hPa 0,0 l/m 0,6 km/h (0 Bft) O-NO 67 5 min 12,3 C 25,9 C 0,0 km/h (0 Bft)
05.10.2015 13:25 17,7 C 23,1 C 16,3 C 26,3 C 26,3 C 8,6 C 72 % 82 % 100 % 1015,5 hPa 0,0 l/m 0,8 km/h (0 Bft) W-SW 247 5 min 12,6 C 26,3 C 2,9 km/h (1 Bft)
05.10.2015 13:30 17,7 C 23,1 C 16,4 C 26,1 C 26,1 C 8,4 C 71 % 82 % 100 % 1015,5 hPa 0,0 l/m 1,4 km/h (1 Bft) O-NO 67 5 min 12,4 C 26,1 C 2,6 km/h (1 Bft)
05.10.2015 13:35 17,9 C 23,1 C 16,7 C 25,8 C 25,8 C 7,9 C 71 % 80 % 100 % 1015,1 hPa 0,0 l/m 1,6 km/h (1 Bft) O-NO 67 5 min 12,6 C 25,8 C 4,0 km/h (1 Bft)
05.10.2015 13:40 18,0 C 23,1 C 16,8 C 25,5 C 25,5 C 7,5 C 70 % 79 % 100 % 1015,1 hPa 0,0 l/m 2,1 km/h (1 Bft) O-SO 112 5 min 12,4 C 25,5 C 3,1 km/h (1 Bft)
05.10.2015 13:45 18,1 C 23,1 C 16,9 C 25,7 C 25,7 C 7,6 C 69 % 78 % 100 % 1015,1 hPa 0,0 l/m 2,1 km/h (1 Bft) NO 45 5 min 12,3 C 25,7 C 4,5 km/h (1 Bft)
05.10.2015 13:50 18,2 C 23,1 C 16,9 C 25,4 C 25,4 C 7,2 C 69 % 77 % 100 % 1015,1 hPa 0,0 l/m 1,3 km/h (1 Bft) SO 135 5 min 12,4 C 25,4 C 0,0 km/h (0 Bft)
05.10.2015 13:55 18,3 C 23,2 C 17,1 C 25,8 C 25,8 C 7,5 C 68 % 76 % 100 % 1014,7 hPa 0,0 l/m 1,4 km/h (1 Bft) O-NO 67 5 min 12,3 C 25,8 C 0,0 km/h (0 Bft)
05.10.2015 14:00 18,3 C 23,2 C 17,2 C 25,4 C 25,4 C 7,1 C 68 % 76 % 100 % 1014,7 hPa 0,0 l/m 1,6 km/h (1 Bft) O-NO 67 5 min 12,3 C 25,4 C 6,0 km/h (2 Bft)
05.10.2015 14:05 18,5 C 23,2 C 17,4 C 25,0 C 25,0 C 6,5 C 67 % 75 % 100 % 1014,7 hPa 0,0 l/m 2,9 km/h (1 Bft) O-NO 67 5 min 12,3 C 25,0 C 5,0 km/h (1 Bft)
05.10.2015 14:10 18,7 C 23,2 C 17,5 C 25,0 C 25,0 C 6,3 C 67 % 74 % 100 % 1014,7 hPa 0,0 l/m 3,1 km/h (1 Bft) O-SO 112 5 min 12,4 C 25,0 C 2,1 km/h (1 Bft)
05.10.2015 14:15 18,8 C 23,2 C 17,7 C 25,0 C 25,0 C 6,2 C 67 % 73 % 100 % 1014,0 hPa 0,0 l/m 3,1 km/h (1 Bft) O 90 5 min 12,5 C 25,0 C 8,2 km/h (2 Bft)
05.10.2015 14:20 18,9 C 23,2 C 17,9 C 24,7 C 24,7 C 5,8 C 66 % 73 % 100 % 1014,0 hPa 0,0 l/m 3,7 km/h (1 Bft) NO 45 5 min 12,4 C 24,7 C 6,1 km/h (2 Bft)
05.10.2015 14:25 18,9 C 23,2 C 17,9 C 24,4 C 24,4 C 5,5 C 65 % 73 % 100 % 1014,0 hPa 0,0 l/m 4,5 km/h (1 Bft) O-NO 67 5 min 12,2 C 24,4 C 9,3 km/h (2 Bft)
05.10.2015 14:30 19,0 C 23,2 C 17,9 C 24,0 C 24,0 C 5,0 C 66 % 73 % 100 % 1014,0 hPa 0,0 l/m 4,2 km/h (1 Bft) NW 315 5 min 12,5 C 24,0 C 0,0 km/h (0 Bft)
05.10.2015 14:35 19,0 C 23,2 C 18,0 C 24,3 C 24,3 C 5,3 C 65 % 72 % 100 % 1014,2 hPa 0,0 l/m 3,7 km/h (1 Bft) NW 315 5 min 12,3 C 24,3 C 0,0 km/h (0 Bft)
05.10.2015 14:40 19,1 C 23,1 C 18,3 C 24,4 C 24,4 C 5,3 C 65 % 72 % 100 % 1014,2 hPa 0,0 l/m 3,2 km/h (1 Bft) O 90 5 min 12,4 C 24,4 C 4,3 km/h (1 Bft)
05.10.2015 14:45 19,1 C 23,2 C 18,3 C 24,0 C 24,0 C 4,9 C 63 % 71 % 100 % 1014,2 hPa 0,0 l/m 4,2 km/h (1 Bft) O-SO 112 5 min 11,9 C 24,0 C 5,8 km/h (2 Bft)
05.10.2015 14:50 19,3 C 23,2 C 18,3 C 23,7 C 23,7 C 4,4 C 63 % 71 % 100 % 1014,2 hPa 0,0 l/m 4,7 km/h (1 Bft) O 90 5 min 12,1 C 23,7 C 2,9 km/h (1 Bft)
05.10.2015 14:55 19,3 C 23,2 C 18,5 C 24,0 C 24,0 C 4,7 C 63 % 71 % 100 % 1013,6 hPa 0,0 l/m 4,2 km/h (1 Bft) NO 45 5 min 12,1 C 24,0 C 9,7 km/h (2 Bft)
05.10.2015 15:00 19,5 C 23,2 C 18,5 C 24,4 C 24,4 C 4,9 C 63 % 71 % 100 % 1013,6 hPa 0,0 l/m 3,5 km/h (1 Bft) O-NO 67 5 min 12,3 C 24,4 C 9,5 km/h (2 Bft)
05.10.2015 15:05 19,5 C 23,2 C 18,4 C 24,1 C 24,1 C 4,6 C 63 % 70 % 100 % 1013,6 hPa 0,0 l/m 2,7 km/h (1 Bft) NO 45 5 min 12,3 C 24,1 C 0,0 km/h (0 Bft)
05.10.2015 15:10 19,5 C 23,2 C 18,3 C 23,5 C 23,5 C 4,0 C 63 % 71 % 100 % 1013,6 hPa 0,0 l/m 2,9 km/h (1 Bft) O-NO 67 5 min 12,3 C 23,5 C 3,5 km/h (1 Bft)
05.10.2015 15:15 19,5 C 23,2 C 18,3 C 22,9 C 22,9 C 3,4 C 63 % 71 % 89 % 1014,1 hPa 0,0 l/m 1,9 km/h (1 Bft) O-NO 67 5 min 12,3 C 22,9 C 0,0 km/h (0 Bft)
05.10.2015 15:20 19,5 C 23,2 C 18,4 C 23,5 C 23,5 C 4,0 C 63 % 71 % 100 % 1014,1 hPa 0,0 l/m 1,0 km/h (0 Bft) O-NO 67 5 min 12,3 C 23,5 C 0,0 km/h (0 Bft)
05.10.2015 15:25 19,7 C 23,3 C 18,3 C 23,2 C 23,2 C 3,5 C 63 % 71 % 92 % 1014,1 hPa 0,0 l/m 0,5 km/h (0 Bft) N-NO 22 5 min 12,5 C 23,2 C 3,4 km/h (1 Bft)
05.10.2015 15:30 19,6 C 23,3 C 18,1 C 22,5 C 22,5 C 2,9 C 63 % 71 % 76 % 1014,1 hPa 0,0 l/m 1,1 km/h (1 Bft) NW 315 0 min 12,4 C 22,5 C 0,0 km/h (0 Bft)
05.10.2015 15:35 19,7 C 23,3 C 18,3 C 22,0 C 22,0 C 2,3 C 62 % 70 % 61 % 1013,8 hPa 0,0 l/m 2,1 km/h (1 Bft) O-SO 112 0 min 12,2 C 22,0 C 0,0 km/h (0 Bft)
05.10.2015 15:41 19,5 C 23,3 C 18,2 C 21,0 C 21,0 C 1,5 C 62 % 69 % 39 % 1013,8 hPa 0,0 l/m 2,6 km/h (1 Bft) N 0 0 min 12,0 C 21,0 C 2,4 km/h (1 Bft)
05.10.2015 15:50 19,5 C 23,3 C 18,1 C 20,8 C 20,8 C 1,3 C 63 % 70 % 34 % 1013,8 hPa 0,0 l/m 2,4 km/h (1 Bft) O-NO 67 0 min 12,3 C 20,8 C 1,9 km/h (1 Bft)
05.10.2015 15:55 19,5 C 23,3 C 18,1 C 20,9 C 20,9 C 1,4 C 63 % 70 % 37 % 1013,4 hPa 0,0 l/m 2,1 km/h (1 Bft) N-NO 22 0 min 12,3 C 20,9 C 2,3 km/h (1 Bft)
05.10.2015 16:00 19,5 C 23,3 C 18,1 C 21,0 C 21,0 C 1,5 C 63 % 70 % 39 % 1013,4 hPa 0,0 l/m 1,3 km/h (1 Bft) N-NO 22 0 min 12,3 C 21,0 C 0,0 km/h (0 Bft)
05.10.2015 16:05 19,4 C 23,3 C 18,0 C 20,9 C 20,9 C 1,5 C 63 % 70 % 39 % 1013,4 hPa 0,0 l/m 0,8 km/h (0 Bft) O-NO 67 0 min 12,2 C 20,9 C 0,0 km/h (0 Bft)
05.10.2015 16:10 19,5 C 23,3 C 18,1 C 20,8 C 20,8 C 1,3 C 63 % 71 % 34 % 1013,4 hPa 0,0 l/m 0,6 km/h (0 Bft) N-NO 22 0 min 12,3 C 20,8 C 0,0 km/h (0 Bft)
05.10.2015 16:15 19,5 C 23,4 C 18,0 C 20,7 C 20,7 C 1,2 C 63 % 71 % 32 % 1013,2 hPa 0,0 l/m 0,5 km/h (0 Bft) O-NO 67 0 min 12,3 C 20,7 C 1,6 km/h (1 Bft)
05.10.2015 16:20 19,5 C 23,4 C 18,0 C 20,5 C 20,5 C 1,0 C 63 % 72 % 26 % 1013,2 hPa 0,0 l/m 1,0 km/h (0 Bft) O-NO 67 0 min 12,3 C 20,5 C 3,2 km/h (1 Bft)
05.10.2015 16:25 19,4 C 23,4 C 17,9 C 20,4 C 20,4 C 1,0 C 64 % 73 % 26 % 1013,2 hPa 0,0 l/m 1,4 km/h (1 Bft) O-NO 67 0 min 12,4 C 20,4 C 2,6 km/h (1 Bft)
05.10.2015 16:30 19,4 C 23,4 C 17,9 C 20,3 C 20,3 C 0,9 C 64 % 73 % 24 % 1013,2 hPa 0,0 l/m 1,8 km/h (1 Bft) O-SO 112 0 min 12,4 C 20,3 C 2,7 km/h (1 Bft)
05.10.2015 16:35 19,5 C 23,4 C 18,0 C 20,3 C 20,3 C 0,8 C 64 % 73 % 21 % 1013,1 hPa 0,0 l/m 2,6 km/h (1 Bft) O-NO 67 0 min 12,5 C 20,3 C 3,9 km/h (1 Bft)
05.10.2015 16:40 19,5 C 23,4 C 18,2 C 20,7 C 20,7 C 1,2 C 64 % 74 % 32 % 1013,1 hPa 0,0 l/m 2,7 km/h (1 Bft) O 90 0 min 12,5 C 20,7 C 3,1 km/h (1 Bft)
05.10.2015 16:45 19,7 C 23,4 C 18,5 C 21,7 C 21,7 C 2,0 C 64 % 74 % 53 % 1013,1 hPa 0,0 l/m 2,3 km/h (1 Bft) O-NO 67 0 min 12,7 C 21,7 C 3,7 km/h (1 Bft)
05.10.2015 16:50 19,7 C 23,4 C 18,8 C 22,5 C 22,5 C 2,8 C 64 % 73 % 74 % 1013,1 hPa 0,0 l/m 2,7 km/h (1 Bft) O-NO 67 5 min 12,7 C 22,5 C 3,4 km/h (1 Bft)
05.10.2015 16:55 19,9 C 23,5 C 18,8 C 22,7 C 22,7 C 2,8 C 64 % 72 % 74 % 1012,9 hPa 0,0 l/m 3,1 km/h (1 Bft) O-NO 67 5 min 12,9 C 22,7 C 4,5 km/h (1 Bft)
05.10.2015 17:00 19,8 C 23,5 C 18,8 C 22,7 C 22,7 C 2,9 C 63 % 71 % 76 % 1012,9 hPa 0,0 l/m 3,4 km/h (1 Bft) O-NO 67 5 min 12,5 C 22,7 C 5,8 km/h (2 Bft)
05.10.2015 17:06 19,7 C 23,5 C 18,4 C 22,1 C 22,1 C 2,4 C 63 % 71 % 63 % 1012,9 hPa 0,0 l/m 3,5 km/h (1 Bft) O-NO 67 6 min 12,5 C 22,1 C 6,8 km/h (2 Bft)
05.10.2015 17:10 19,7 C 23,5 C 18,3 C 21,4 C 21,4 C 1,7 C 63 % 72 % 45 % 1012,9 hPa 0,0 l/m 3,4 km/h (1 Bft) NO 45 0 min 12,5 C 21,4 C 5,3 km/h (1 Bft)
05.10.2015 17:17 19,5 C 23,5 C 18,0 C 20,0 C 20,0 C 0,5 C 63 % 72 % 13 % 1012,8 hPa 0,0 l/m 3,9 km/h (1 Bft) O-SO 112 0 min 12,3 C 20,0 C 0,0 km/h (0 Bft)
05.10.2015 17:18 19,5 C 23,5 C 18,0 C 20,0 C 20,0 C 0,5 C 63 % 72 % 13 % 1012,8 hPa 0,0 l/m 3,9 km/h (1 Bft) O-SO 112 0 min 12,3 C 20,0 C 0,0 km/h (0 Bft)
05.10.2015 17:19 19,5 C 23,5 C 18,0 C 20,0 C 20,0 C 0,5 C 63 % 72 % 13 % 1012,8 hPa 0,0 l/m 3,9 km/h (1 Bft) O-SO 112 0 min 12,3 C 20,0 C 0,0 km/h (0 Bft)
05.10.2015 17:20 19,5 C 23,5 C 18,0 C 20,0 C 20,0 C 0,5 C 63 % 72 % 13 % 1012,8 hPa 0,0 l/m 3,9 km/h (1 Bft) O-SO 112 0 min 12,3 C 20,0 C 0,0 km/h (0 Bft)
05.10.2015 17:21 19,5 C 23,5 C 18,0 C 20,0 C 20,0 C 0,5 C 63 % 72 % 13 % 1012,8 hPa 0,0 l/m 3,9 km/h (1 Bft) O-SO 112 0 min 12,3 C 20,0 C 0,0 km/h (0 Bft)
05.10.2015 17:23 19,3 C 23,5 C 17,7 C 19,3 C 19,3 C 0,0 C 64 % 72 % 0 % 1012,8 hPa 0,0 l/m 1,8 km/h (1 Bft) O-SO 112 0 min 12,3 C 19,3 C 0,0 km/h (0 Bft)
05.10.2015 17:34 18,8 C 23,5 C 17,2 C 18,7 C 18,4 C 0,0 C 65 % 73 % 0 % 1012,8 hPa 0,0 l/m 1,1 km/h (1 Bft) O-NO 67 0 min 12,1 C 18,4 C 3,1 km/h (1 Bft)
05.10.2015 17:35 18,8 C 23,5 C 17,2 C 18,7 C 18,4 C 0,0 C 65 % 73 % 0 % 1012,8 hPa 0,0 l/m 1,1 km/h (1 Bft) O-NO 67 0 min 12,1 C 18,4 C 3,1 km/h (1 Bft)
05.10.2015 17:36 18,8 C 23,5 C 17,2 C 18,7 C 18,4 C 0,0 C 65 % 73 % 0 % 1012,8 hPa 0,0 l/m 1,1 km/h (1 Bft) O-NO 67 0 min 12,1 C 18,4 C 3,1 km/h (1 Bft)
05.10.2015 17:37 18,7 C 23,5 C 17,1 C 18,5 C 18,2 C 0,0 C 65 % 74 % 0 % 1012,8 hPa 0,0 l/m 1,8 km/h (1 Bft) O 90 0 min 12,0 C 18,2 C 4,2 km/h (1 Bft)
05.10.2015 17:38 18,7 C 23,5 C 17,1 C 18,5 C 18,2 C 0,0 C 65 % 74 % 0 % 1012,8 hPa 0,0 l/m 1,8 km/h (1 Bft) O 90 0 min 12,0 C 18,2 C 4,2 km/h (1 Bft)
05.10.2015 17:40 18,7 C 23,5 C 17,1 C 18,5 C 18,2 C 0,0 C 65 % 74 % 0 % 1012,8 hPa 0,0 l/m 1,8 km/h (1 Bft) O 90 0 min 12,0 C 18,2 C 4,2 km/h (1 Bft)
05.10.2015 17:51 18,5 C 23,6 C 16,8 C 18,3 C 18,0 C 0,0 C 66 % 75 % 0 % 1012,8 hPa 0,0 l/m 1,1 km/h (1 Bft) O-SO 112 0 min 12,0 C 18,0 C 0,0 km/h (0 Bft)
05.10.2015 17:52 18,3 C 23,6 C 16,7 C 18,1 C 17,8 C 0,0 C 66 % 75 % 0 % 1012,5 hPa 0,0 l/m 0,2 km/h (0 Bft) O-NO 67 0 min 11,8 C 17,8 C 0,0 km/h (0 Bft)
05.10.2015 17:53 18,3 C 23,6 C 16,7 C 18,1 C 17,8 C 0,0 C 66 % 75 % 0 % 1012,5 hPa 0,0 l/m 0,2 km/h (0 Bft) O-NO 67 0 min 11,8 C 17,8 C 0,0 km/h (0 Bft)
05.10.2015 17:54 18,3 C 23,6 C 16,7 C 18,1 C 17,8 C 0,0 C 66 % 75 % 0 % 1012,5 hPa 0,0 l/m 0,2 km/h (0 Bft) O-NO 67 0 min 11,8 C 17,8 C 0,0 km/h (0 Bft)
05.10.2015 17:55 18,3 C 23,6 C 16,7 C 18,1 C 17,8 C 0,0 C 66 % 75 % 0 % 1012,5 hPa 0,0 l/m 0,2 km/h (0 Bft) O-NO 67 0 min 11,8 C 17,8 C 0,0 km/h (0 Bft)
05.10.2015 17:56 18,3 C 23,6 C 16,7 C 18,1 C 17,7 C 0,0 C 67 % 75 % 0 % 1012,5 hPa 0,0 l/m 0,3 km/h (0 Bft) O-NO 67 0 min 12,1 C 17,7 C 3,4 km/h (1 Bft)
05.10.2015 18:01 18,1 C 23,6 C 16,5 C 17,9 C 17,6 C 0,0 C 66 % 75 % 0 % 1012,5 hPa 0,0 l/m 0,5 km/h (0 Bft) O-NO 67 0 min 11,6 C 17,6 C 0,0 km/h (0 Bft)
05.10.2015 18:06 18,1 C 23,6 C 16,5 C 17,9 C 17,5 C 0,0 C 67 % 75 % 0 % 1012,5 hPa 0,0 l/m 0,3 km/h (0 Bft) O-NO 67 0 min 11,9 C 17,5 C 0,0 km/h (0 Bft)
05.10.2015 18:11 17,8 C 23,7 C 16,3 C 17,6 C 17,2 C 0,0 C 67 % 76 % 0 % 1013,2 hPa 0,0 l/m 0,5 km/h (0 Bft) O-SO 112 0 min 11,6 C 17,2 C 2,1 km/h (1 Bft)
05.10.2015 18:16 17,7 C 23,7 C 16,2 C 17,5 C 17,1 C 0,0 C 67 % 76 % 0 % 1013,2 hPa 0,0 l/m 0,3 km/h (0 Bft) O-SO 112 0 min 11,5 C 17,1 C 0,0 km/h (0 Bft)
05.10.2015 18:21 17,5 C 23,7 C 16,1 C 17,3 C 16,8 C 0,0 C 67 % 76 % 0 % 1013,2 hPa 0,0 l/m 0,2 km/h (0 Bft) O-SO 112 0 min 11,3 C 16,8 C 0,0 km/h (0 Bft)
05.10.2015 18:26 17,5 C 23,7 C 15,9 C 17,2 C 16,5 C 0,0 C 68 % 76 % 0 % 1013,2 hPa 0,0 l/m 0,0 km/h (0 Bft) O 90 0 min 11,5 C 16,5 C 0,0 km/h (0 Bft)
05.10.2015 18:31 17,1 C 23,7 C 15,8 C 16,8 C 16,2 C 0,0 C 68 % 76 % 0 % 1012,4 hPa 0,0 l/m 0,2 km/h (0 Bft) O-NO 67 0 min 11,1 C 16,2 C 1,6 km/h (1 Bft)
05.10.2015 18:36 17,1 C 23,7 C 15,6 C 16,8 C 16,1 C 0,0 C 69 % 77 % 0 % 1012,4 hPa 0,0 l/m 0,3 km/h (0 Bft) O-NO 67 0 min 11,4 C 16,1 C 0,0 km/h (0 Bft)
05.10.2015 18:41 17,0 C 23,7 C 15,5 C 16,7 C 16,0 C 0,0 C 69 % 77 % 0 % 1012,4 hPa 0,0 l/m 0,6 km/h (0 Bft) O-NO 67 0 min 11,3 C 16,0 C 0,0 km/h (0 Bft)
05.10.2015 18:46 16,9 C 23,7 C 15,4 C 16,5 C 15,8 C 0,0 C 69 % 77 % 0 % 1012,4 hPa 0,0 l/m 0,5 km/h (0 Bft) O-NO 67 0 min 11,2 C 15,8 C 0,0 km/h (0 Bft)
05.10.2015 18:51 16,6 C 23,7 C 15,2 C 16,3 C 15,6 C 0,0 C 70 % 78 % 0 % 1012,6 hPa 0,0 l/m 1,0 km/h (0 Bft) O-NO 67 0 min 11,1 C 15,6 C 2,9 km/h (1 Bft)
05.10.2015 18:56 16,5 C 23,7 C 15,1 C 16,2 C 15,5 C 0,0 C 70 % 78 % 0 % 1012,6 hPa 0,0 l/m 1,8 km/h (1 Bft) O-NO 67 0 min 11,0 C 15,5 C 2,7 km/h (1 Bft)
05.10.2015 19:01 16,2 C 23,7 C 14,9 C 15,9 C 15,3 C 0,0 C 71 % 78 % 0 % 1012,6 hPa 0,0 l/m 1,8 km/h (1 Bft) O-NO 67 0 min 10,9 C 15,3 C 2,1 km/h (1 Bft)
05.10.2015 19:06 16,3 C 23,7 C 14,9 C 15,9 C 15,2 C 0,0 C 71 % 78 % 0 % 1012,6 hPa 0,0 l/m 1,1 km/h (1 Bft) O-NO 67 0 min 11,0 C 15,2 C 0,0 km/h (0 Bft)
05.10.2015 19:11 16,1 C 23,7 C 14,6 C 15,7 C 15,0 C 0,0 C 71 % 79 % 0 % 1012,6 hPa 0,0 l/m 0,8 km/h (0 Bft) O-NO 67 0 min 10,8 C 15,0 C 1,9 km/h (1 Bft)
05.10.2015 19:16 15,9 C 23,7 C 14,7 C 15,6 C 15,0 C 0,0 C 71 % 79 % 0 % 1012,6 hPa 0,0 l/m 0,5 km/h (0 Bft) O-NO 67 0 min 10,6 C 15,0 C 1,8 km/h (1 Bft)
05.10.2015 19:21 15,8 C 23,7 C 14,5 C 15,5 C 14,8 C 0,0 C 71 % 79 % 0 % 1012,6 hPa 0,0 l/m 0,5 km/h (0 Bft) O-NO 67 0 min 10,6 C 14,8 C 0,0 km/h (0 Bft)
05.10.2015 19:26 15,6 C 23,7 C 14,4 C 15,3 C 14,6 C 0,0 C 71 % 79 % 0 % 1012,6 hPa 0,0 l/m 0,2 km/h (0 Bft) O-NO 67 0 min 10,4 C 14,6 C 0,0 km/h (0 Bft)
05.10.2015 19:31 15,4 C 23,7 C 14,2 C 15,0 C 14,1 C 0,0 C 72 % 80 % 0 % 1012,5 hPa 0,0 l/m 0,0 km/h (0 Bft) O-NO 67 0 min 10,4 C 14,1 C 0,0 km/h (0 Bft)
05.10.2015 19:36 15,2 C 23,8 C 14,0 C 14,7 C 13,8 C 0,0 C 72 % 80 % 0 % 1012,5 hPa 0,0 l/m 0,0 km/h (0 Bft) O-NO 67 0 min 10,2 C 13,8 C 0,0 km/h (0 Bft)
05.10.2015 19:41 14,8 C 23,8 C 13,9 C 14,3 C 13,3 C 0,0 C 72 % 81 % 0 % 1012,5 hPa 0,0 l/m 0,0 km/h (0 Bft) W-SW 247 0 min 9,8 C 13,3 C 0,0 km/h (0 Bft)
05.10.2015 19:46 14,7 C 23,8 C 13,6 C 14,1 C 13,0 C 0,0 C 73 % 81 % 0 % 1012,5 hPa 0,0 l/m 0,0 km/h (0 Bft) W-SW 247 0 min 9,9 C 13,0 C 0,0 km/h (0 Bft)
05.10.2015 19:51 14,4 C 23,8 C 13,5 C 13,9 C 12,9 C 0,0 C 74 % 82 % 0 % 1012,5 hPa 0,0 l/m 0,0 km/h (0 Bft) W-SW 247 0 min 9,8 C 12,9 C 0,0 km/h (0 Bft)
05.10.2015 19:56 14,3 C 23,8 C 13,3 C 13,7 C 12,6 C 0,0 C 74 % 82 % 0 % 1012,5 hPa 0,0 l/m 0,0 km/h (0 Bft) W-SW 247 0 min 9,7 C 12,6 C 0,0 km/h (0 Bft)
05.10.2015 20:01 14,0 C 23,8 C 13,2 C 13,5 C 12,4 C 0,0 C 74 % 83 % 0 % 1012,5 hPa 0,0 l/m 0,0 km/h (0 Bft) W-SW 247 0 min 9,4 C 12,4 C 0,0 km/h (0 Bft)
05.10.2015 20:06 13,9 C 23,8 C 13,2 C 13,4 C 12,3 C 0,0 C 74 % 83 % 0 % 1012,5 hPa 0,0 l/m 0,0 km/h (0 Bft) W-SW 247 0 min 9,3 C 12,3 C 0,0 km/h (0 Bft)
05.10.2015 20:11 13,7 C 23,9 C 13,1 C 13,2 C 12,1 C 0,0 C 76 % 84 % 0 % 1012,4 hPa 0,0 l/m 0,0 km/h (0 Bft) W-SW 247 0 min 9,5 C 12,1 C 0,0 km/h (0 Bft)
05.10.2015 20:16 13,5 C 23,9 C 13,1 C 13,0 C 12,0 C 0,0 C 76 % 84 % 0 % 1012,4 hPa 0,0 l/m 0,0 km/h (0 Bft) W-SW 247 0 min 9,4 C 12,0 C 0,0 km/h (0 Bft)
05.10.2015 20:21 13,1 C 23,9 C 12,8 C 12,7 C 12,0 C 0,0 C 77 % 84 % 0 % 1012,4 hPa 0,0 l/m 0,0 km/h (0 Bft) W-SW 247 0 min 9,2 C 12,0 C 0,0 km/h (0 Bft)
05.10.2015 20:26 12,9 C 23,9 C 12,6 C 12,6 C 12,0 C 0,0 C 78 % 84 % 0 % 1012,4 hPa 0,0 l/m 0,0 km/h (0 Bft) W-SW 247 0 min 9,2 C 12,0 C 0,0 km/h (0 Bft)
05.10.2015 20:31 12,4 C 24,0 C 12,5 C 12,3 C 12,0 C 0,0 C 78 % 85 % 0 % 1012,6 hPa 0,0 l/m 0,0 km/h (0 Bft) W-SW 247 0 min 8,7 C 12,0 C 0,0 km/h (0 Bft)
05.10.2015 20:36 12,3 C 24,0 C 12,4 C 12,2 C 12,0 C 0,0 C 79 % 85 % 0 % 1012,6 hPa 0,0 l/m 0,0 km/h (0 Bft) W-SW 247 0 min 8,8 C 12,0 C 0,0 km/h (0 Bft)
05.10.2015 20:41 12,1 C 24,1 C 12,4 C 12,1 C 12,0 C 0,0 C 79 % 85 % 0 % 1012,6 hPa 0,0 l/m 0,0 km/h (0 Bft) SO 135 0 min 8,6 C 12,0 C 0,0 km/h (0 Bft)
05.10.2015 20:46 11,9 C 24,1 C 12,3 C 12,0 C 12,0 C 0,1 C 79 % 85 % 0 % 1012,6 hPa 0,0 l/m 0,0 km/h (0 Bft) SO 135 0 min 8,4 C 12,0 C 0,0 km/h (0 Bft)
05.10.2015 20:47 11,9 C 24,1 C 12,3 C 12,0 C 12,0 C 0,1 C 79 % 85 % 0 % 1012,6 hPa 0,0 l/m 0,0 km/h (0 Bft) SO 135 0 min 8,4 C 12,0 C 0,0 km/h (0 Bft)
05.10.2015 20:50 11,9 C 24,1 C 12,3 C 12,0 C 12,0 C 0,1 C 79 % 85 % 0 % 1012,6 hPa 0,0 l/m 0,0 km/h (0 Bft) SO 135 0 min 8,4 C 12,0 C 0,0 km/h (0 Bft)
05.10.2015 20:55 11,7 C 24,0 C 12,2 C 12,0 C 12,0 C 0,3 C 80 % 86 % 0 % 1012,4 hPa 0,0 l/m 0,0 km/h (0 Bft) SO 135 0 min 8,4 C 12,0 C 0,0 km/h (0 Bft)
05.10.2015 21:00 11,6 C 24,0 C 12,2 C 11,8 C 11,8 C 0,2 C 80 % 86 % 0 % 1012,4 hPa 0,0 l/m 0,0 km/h (0 Bft) SW 225 0 min 8,3 C 11,8 C 0,0 km/h (0 Bft)
05.10.2015 21:06 11,5 C 24,1 C 12,1 C 11,8 C 11,8 C 0,3 C 80 % 86 % 0 % 1012,4 hPa 0,0 l/m 0,0 km/h (0 Bft) SW 225 0 min 8,2 C 11,8 C 0,0 km/h (0 Bft)
05.10.2015 21:10 11,3 C 24,1 C 12,1 C 11,7 C 11,7 C 0,4 C 80 % 86 % 0 % 1012,4 hPa 0,0 l/m 0,0 km/h (0 Bft) SW 225 0 min 8,0 C 11,7 C 0,0 km/h (0 Bft)
05.10.2015 21:17 11,1 C 24,1 C 11,9 C 11,6 C 11,6 C 0,5 C 81 % 87 % 0 % 1012,2 hPa 0,0 l/m 0,0 km/h (0 Bft) SO 135 0 min 8,0 C 11,6 C 0,0 km/h (0 Bft)
05.10.2015 21:18 11,1 C 24,1 C 11,9 C 11,6 C 11,6 C 0,5 C 81 % 87 % 0 % 1012,2 hPa 0,0 l/m 0,0 km/h (0 Bft) SO 135 0 min 8,0 C 11,6 C 0,0 km/h (0 Bft)
05.10.2015 21:19 11,1 C 24,1 C 11,9 C 11,6 C 11,6 C 0,5 C 81 % 87 % 0 % 1012,2 hPa 0,0 l/m 0,0 km/h (0 Bft) SO 135 0 min 8,0 C 11,6 C 0,0 km/h (0 Bft)
05.10.2015 21:20 11,1 C 24,1 C 11,9 C 11,6 C 11,6 C 0,5 C 81 % 87 % 0 % 1012,2 hPa 0,0 l/m 0,0 km/h (0 Bft) SO 135 0 min 8,0 C 11,6 C 0,0 km/h (0 Bft)
05.10.2015 21:21 11,1 C 24,1 C 11,9 C 11,6 C 11,6 C 0,5 C 81 % 87 % 0 % 1012,2 hPa 0,0 l/m 0,0 km/h (0 Bft) SO 135 0 min 8,0 C 11,6 C 0,0 km/h (0 Bft)
05.10.2015 21:23 10,9 C 24,1 C 12,0 C 11,5 C 11,5 C 0,6 C 81 % 87 % 0 % 1012,2 hPa 0,0 l/m 0,0 km/h (0 Bft) SO 135 0 min 7,8 C 11,5 C 0,0 km/h (0 Bft)
05.10.2015 21:34 10,9 C 24,0 C 11,9 C 11,4 C 11,4 C 0,5 C 82 % 87 % 0 % 1012,1 hPa 0,0 l/m 0,0 km/h (0 Bft) S 180 0 min 7,9 C 11,4 C 0,0 km/h (0 Bft)
05.10.2015 21:35 10,9 C 24,0 C 11,9 C 11,4 C 11,4 C 0,5 C 82 % 87 % 0 % 1012,1 hPa 0,0 l/m 0,0 km/h (0 Bft) S 180 0 min 7,9 C 11,4 C 0,0 km/h (0 Bft)
05.10.2015 21:36 10,9 C 24,0 C 11,9 C 11,4 C 11,4 C 0,5 C 82 % 87 % 0 % 1012,1 hPa 0,0 l/m 0,0 km/h (0 Bft) S 180 0 min 7,9 C 11,4 C 0,0 km/h (0 Bft)
05.10.2015 21:37 10,8 C 24,1 C 11,9 C 11,3 C 11,3 C 0,5 C 82 % 87 % 0 % 1012,1 hPa 0,0 l/m 0,0 km/h (0 Bft) S 180 0 min 7,9 C 11,3 C 0,0 km/h (0 Bft)
05.10.2015 21:38 10,8 C 24,1 C 11,9 C 11,3 C 11,3 C 0,5 C 82 % 87 % 0 % 1012,1 hPa 0,0 l/m 0,0 km/h (0 Bft) S 180 0 min 7,9 C 11,3 C 0,0 km/h (0 Bft)
05.10.2015 21:41 10,7 C 24,1 C 11,7 C 11,2 C 11,2 C 0,5 C 82 % 87 % 0 % 1012,1 hPa 0,0 l/m 0,0 km/h (0 Bft) O-SO 112 0 min 7,8 C 11,2 C 0,0 km/h (0 Bft)
05.10.2015 21:44 10,7 C 24,1 C 11,7 C 11,2 C 11,2 C 0,5 C 82 % 87 % 0 % 1012,1 hPa 0,0 l/m 0,0 km/h (0 Bft) O-SO 112 0 min 7,8 C 11,2 C 0,0 km/h (0 Bft)
05.10.2015 21:50 10,6 C 24,1 C 11,6 C 11,2 C 11,2 C 0,6 C 83 % 87 % 0 % 1012,1 hPa 0,0 l/m 0,0 km/h (0 Bft) O-SO 112 0 min 7,8 C 11,2 C 0,0 km/h (0 Bft)
05.10.2015 21:55 10,6 C 24,1 C 11,7 C 11,2 C 11,2 C 0,6 C 83 % 87 % 0 % 1011,9 hPa 0,0 l/m 0,0 km/h (0 Bft) O-SO 112 0 min 7,8 C 11,2 C 0,0 km/h (0 Bft)
05.10.2015 22:00 10,5 C 24,1 C 11,6 C 11,0 C 11,0 C 0,5 C 83 % 88 % 0 % 1011,9 hPa 0,0 l/m 0,0 km/h (0 Bft) W-SW 247 0 min 7,7 C 11,0 C 0,0 km/h (0 Bft)
05.10.2015 22:06 10,5 C 24,2 C 11,6 C 10,8 C 10,8 C 0,3 C 83 % 88 % 0 % 1011,9 hPa 0,0 l/m 0,0 km/h (0 Bft) N-NW 337 0 min 7,7 C 10,8 C 0,0 km/h (0 Bft)
05.10.2015 22:10 10,4 C 24,2 C 11,5 C 10,8 C 10,8 C 0,4 C 83 % 88 % 0 % 1011,9 hPa 0,0 l/m 0,0 km/h (0 Bft) O-NO 67 0 min 7,6 C 10,8 C 0,0 km/h (0 Bft)
05.10.2015 22:17 10,2 C 24,1 C 11,5 C 10,8 C 10,8 C 0,6 C 83 % 88 % 0 % 1012,2 hPa 0,0 l/m 0,0 km/h (0 Bft) W-SW 247 0 min 7,4 C 10,8 C 0,0 km/h (0 Bft)
05.10.2015 22:18 10,2 C 24,1 C 11,5 C 10,8 C 10,8 C 0,6 C 83 % 88 % 0 % 1012,2 hPa 0,0 l/m 0,0 km/h (0 Bft) W-SW 247 0 min 7,4 C 10,8 C 0,0 km/h (0 Bft)
05.10.2015 22:19 10,2 C 24,1 C 11,5 C 10,8 C 10,8 C 0,6 C 83 % 88 % 0 % 1012,2 hPa 0,0 l/m 0,0 km/h (0 Bft) W-SW 247 0 min 7,4 C 10,8 C 0,0 km/h (0 Bft)
05.10.2015 22:20 10,2 C 24,1 C 11,5 C 10,8 C 10,8 C 0,6 C 83 % 88 % 0 % 1012,2 hPa 0,0 l/m 0,0 km/h (0 Bft) W-SW 247 0 min 7,4 C 10,8 C 0,0 km/h (0 Bft)
05.10.2015 22:21 10,2 C 24,1 C 11,5 C 10,8 C 10,8 C 0,6 C 83 % 88 % 0 % 1012,2 hPa 0,0 l/m 0,0 km/h (0 Bft) W-SW 247 0 min 7,4 C 10,8 C 0,0 km/h (0 Bft)
05.10.2015 22:26 10,1 C 24,2 C 11,2 C 10,6 C 10,6 C 0,5 C 84 % 88 % 0 % 1012,2 hPa 0,0 l/m 0,0 km/h (0 Bft) W-SW 247 0 min 7,5 C 10,6 C 0,0 km/h (0 Bft)
05.10.2015 22:28 10,1 C 24,2 C 11,2 C 10,6 C 10,6 C 0,5 C 84 % 88 % 0 % 1012,2 hPa 0,0 l/m 0,0 km/h (0 Bft) W-SW 247 0 min 7,5 C 10,6 C 0,0 km/h (0 Bft)
05.10.2015 22:30 10,1 C 24,2 C 11,2 C 10,6 C 10,6 C 0,5 C 84 % 88 % 0 % 1012,2 hPa 0,0 l/m 0,0 km/h (0 Bft) W-SW 247 0 min 7,5 C 10,6 C 0,0 km/h (0 Bft)
05.10.2015 22:35 10,1 C 24,2 C 11,1 C 10,6 C 10,6 C 0,5 C 84 % 88 % 0 % 1011,6 hPa 0,0 l/m 0,0 km/h (0 Bft) W-SW 247 0 min 7,5 C 10,6 C 0,0 km/h (0 Bft)
05.10.2015 22:40 10,0 C 24,1 C 11,1 C 10,4 C 10,4 C 0,4 C 84 % 88 % 0 % 1011,6 hPa 0,0 l/m 0,0 km/h (0 Bft) W-SW 247 0 min 7,4 C 10,4 C 0,0 km/h (0 Bft)
05.10.2015 22:45 9,9 C 24,1 C 11,0 C 10,2 C 10,2 C 0,3 C 84 % 89 % 0 % 1011,6 hPa 0,0 l/m 0,0 km/h (0 Bft) W 270 0 min 7,3 C 10,2 C 0,0 km/h (0 Bft)
05.10.2015 22:50 9,9 C 24,2 C 11,1 C 10,2 C 10,2 C 0,3 C 84 % 89 % 0 % 1011,6 hPa 0,0 l/m 0,0 km/h (0 Bft) N-NW 337 0 min 7,3 C 10,2 C 0,0 km/h (0 Bft)
05.10.2015 22:55 9,8 C 24,2 C 10,9 C 10,2 C 10,2 C 0,4 C 84 % 89 % 0 % 1011,6 hPa 0,0 l/m 0,0 km/h (0 Bft) N-NO 22 0 min 7,2 C 10,2 C 0,0 km/h (0 Bft)
05.10.2015 23:00 9,7 C 24,2 C 10,8 C 10,2 C 10,2 C 0,5 C 85 % 89 % 0 % 1011,6 hPa 0,0 l/m 0,0 km/h (0 Bft) O-SO 112 0 min 7,3 C 10,2 C 0,0 km/h (0 Bft)
05.10.2015 23:05 9,8 C 24,2 C 10,7 C 10,2 C 10,2 C 0,4 C 85 % 89 % 0 % 1011,6 hPa 0,0 l/m 0,0 km/h (0 Bft) O-NO 67 0 min 7,4 C 10,2 C 0,0 km/h (0 Bft)
05.10.2015 23:10 9,9 C 24,2 C 10,7 C 10,2 C 10,2 C 0,3 C 85 % 89 % 0 % 1011,6 hPa 0,0 l/m 0,0 km/h (0 Bft) O-NO 67 0 min 7,5 C 10,2 C 0,0 km/h (0 Bft)
05.10.2015 23:15 9,7 C 24,1 C 10,7 C 10,1 C 10,1 C 0,4 C 85 % 89 % 0 % 1011,2 hPa 0,0 l/m 0,0 km/h (0 Bft) SW 225 0 min 7,3 C 10,1 C 0,0 km/h (0 Bft)
05.10.2015 23:20 9,6 C 24,1 C 10,7 C 10,0 C 10,0 C 0,4 C 85 % 89 % 0 % 1011,2 hPa 0,0 l/m 0,0 km/h (0 Bft) SW 225 0 min 7,2 C 10,0 C 0,0 km/h (0 Bft)
05.10.2015 23:25 9,5 C 24,1 C 10,7 C 9,9 C 9,9 C 0,4 C 85 % 89 % 0 % 1011,2 hPa 0,0 l/m 0,0 km/h (0 Bft) SW 225 0 min 7,1 C 9,9 C 0,0 km/h (0 Bft)
05.10.2015 23:30 9,5 C 24,2 C 10,5 C 9,8 C 9,8 C 0,3 C 85 % 89 % 0 % 1011,2 hPa 0,0 l/m 0,0 km/h (0 Bft) SW 225 0 min 7,1 C 9,8 C 0,0 km/h (0 Bft)
05.10.2015 23:35 9,4 C 24,2 C 10,5 C 9,8 C 9,8 C 0,4 C 85 % 89 % 0 % 1011,1 hPa 0,0 l/m 0,0 km/h (0 Bft) O-NO 67 0 min 7,0 C 9,8 C 0,0 km/h (0 Bft)
05.10.2015 23:40 9,3 C 24,1 C 10,4 C 9,7 C 9,7 C 0,4 C 85 % 89 % 0 % 1011,1 hPa 0,0 l/m 0,0 km/h (0 Bft) O-NO 67 0 min 6,9 C 9,7 C 0,0 km/h (0 Bft)
05.10.2015 23:45 9,2 C 24,1 C 10,5 C 9,5 C 9,5 C 0,3 C 85 % 89 % 0 % 1011,1 hPa 0,0 l/m 0,0 km/h (0 Bft) SW 225 0 min 6,8 C 9,5 C 0,0 km/h (0 Bft)
05.10.2015 23:50 9,1 C 24,1 C 10,4 C 9,5 C 9,5 C 0,4 C 85 % 89 % 0 % 1011,1 hPa 0,0 l/m 0,0 km/h (0 Bft) O-NO 67 0 min 6,7 C 9,5 C 0,0 km/h (0 Bft)
05.10.2015 23:55 9,2 C 24,2 C 10,3 C 9,5 C 9,5 C 0,3 C 86 % 89 % 0 % 1010,9 hPa 0,0 l/m 0,0 km/h (0 Bft) O-NO 67 0 min 7,0 C 9,5 C 0,0 km/h (0 Bft)
_ Min-Zeit 07:25 12:25 07:25 07:25 07:20 00:00 15:35 15:41 00:00 23:55 - 00:00 - - - 07:25 07:20 00:00
Minimum _ 6,3 C 23,0 C 7,4 C 6,3 C 6,3 C 0,0 C 62 % 69 % 0 % 1010,9 hPa - 0,0 km/h (0 Bft) - - - 4,6 C 6,3 C 0,0 km/h (0 Bft)
_ Max-Zeit 16:55 22:06 16:50 13:25 13:25 13:25 09:41 00:30 12:35 11:15 00:00 14:50 - - 12:50 16:55 13:25 14:55
Maximum _ 19,9 C 24,2 C 18,8 C 26,3 C 26,3 C 8,6 C 92 % 90 % 100 % 1016,2 hPa 0,0 l/m 4,7 km/h
O (1 Bft)
- - 9 min 12,9 C 26,3 C 9,7 km/h
NO (2 Bft)
Durchschnitt _ 12,2 C 23,7 C 12,4 C 13,7 C 13,6 C 1,5 C 81 % 85 % 26 % 1014,4 hPa #0,0 l/m 0,6 km/h (0 Bft) O-NO - #3:41 h 8,9 C 13,6 C 0,9 km/h (0 Bft)
2015 www.wetterstation-wechselburg.de